sensor_id;sensor_type;location;lat;lon;timestamp;pressure;altitude;pressure_sealevel;temperature;humidity
45793;BME280;31495;42.740;22.908;2023-05-09T00:00:35;93325.69;;;13.32;74.55
45793;BME280;31495;42.740;22.908;2023-05-09T00:01:35;93339.41;;;13.39;74.58
45793;BME280;31495;42.740;22.908;2023-05-09T00:02:34;93323.97;;;13.26;74.65
45793;BME280;31495;42.740;22.908;2023-05-09T00:03:34;93343.50;;;13.35;74.64
45793;BME280;31495;42.740;22.908;2023-05-09T00:04:33;93359.31;;;13.45;74.29
45793;BME280;31495;42.740;22.908;2023-05-09T00:05:33;93345.69;;;13.31;74.58
45793;BME280;31495;42.740;22.908;2023-05-09T00:06:32;93326.03;;;13.23;74.79
45793;BME280;31495;42.740;22.908;2023-05-09T00:07:32;93370.59;;;13.39;74.82
45793;BME280;31495;42.740;22.908;2023-05-09T00:08:32;93347.03;;;13.22;74.82
45793;BME280;31495;42.740;22.908;2023-05-09T00:09:32;93335.69;;;13.16;75.08
45793;BME280;31495;42.740;22.908;2023-05-09T00:10:31;93343.84;;;13.20;75.38
45793;BME280;31495;42.740;22.908;2023-05-09T00:11:31;93369.47;;;13.35;75.38
45793;BME280;31495;42.740;22.908;2023-05-09T00:12:30;93341.94;;;13.27;75.45
45793;BME280;31495;42.740;22.908;2023-05-09T00:13:30;93349.31;;;13.30;75.40
45793;BME280;31495;42.740;22.908;2023-05-09T00:14:29;93335.97;;;13.27;75.26
45793;BME280;31495;42.740;22.908;2023-05-09T00:15:28;93341.16;;;13.27;74.97
45793;BME280;31495;42.740;22.908;2023-05-09T00:16:28;93336.97;;;13.26;75.06
45793;BME280;31495;42.740;22.908;2023-05-09T00:17:31;93348.28;;;13.31;75.03
45793;BME280;31495;42.740;22.908;2023-05-09T00:18:30;93368.94;;;13.45;74.96
45793;BME280;31495;42.740;22.908;2023-05-09T00:19:29;93325.06;;;13.18;75.21
45793;BME280;31495;42.740;22.908;2023-05-09T00:20:29;93334.72;;;13.29;74.96
45793;BME280;31495;42.740;22.908;2023-05-09T00:21:32;93354.91;;;13.46;75.05
45793;BME280;31495;42.740;22.908;2023-05-09T00:22:32;93299.97;;;13.12;74.83
45793;BME280;31495;42.740;22.908;2023-05-09T00:23:32;93335.81;;;13.40;74.98
45793;BME280;31495;42.740;22.908;2023-05-09T00:24:31;93357.84;;;13.49;74.79
45793;BME280;31495;42.740;22.908;2023-05-09T00:25:31;93347.03;;;13.52;74.20
45793;BME280;31495;42.740;22.908;2023-05-09T00:26:30;93355.16;;;13.56;74.30
45793;BME280;31495;42.740;22.908;2023-05-09T00:27:30;93341.13;;;13.45;74.46
45793;BME280;31495;42.740;22.908;2023-05-09T00:28:29;93328.13;;;13.33;74.48
45793;BME280;31495;42.740;22.908;2023-05-09T00:29:29;93327.91;;;13.35;74.44
45793;BME280;31495;42.740;22.908;2023-05-09T00:30:29;93326.97;;;13.41;74.29
45793;BME280;31495;42.740;22.908;2023-05-09T00:31:29;93347.25;;;13.51;74.49
45793;BME280;31495;42.740;22.908;2023-05-09T00:32:28;93341.69;;;13.47;74.49
45793;BME280;31495;42.740;22.908;2023-05-09T00:33:28;93345.56;;;13.56;74.38
45793;BME280;31495;42.740;22.908;2023-05-09T00:34:28;93348.63;;;13.53;74.44
45793;BME280;31495;42.740;22.908;2023-05-09T00:35:27;93340.25;;;13.51;74.35
45793;BME280;31495;42.740;22.908;2023-05-09T00:36:27;93327.91;;;13.47;74.47
45793;BME280;31495;42.740;22.908;2023-05-09T00:37:28;93340.38;;;13.56;74.52
45793;BME280;31495;42.740;22.908;2023-05-09T00:38:28;93344.19;;;13.54;74.47
45793;BME280;31495;42.740;22.908;2023-05-09T00:39:28;93320.22;;;13.40;74.60
45793;BME280;31495;42.740;22.908;2023-05-09T00:40:27;93346.78;;;13.54;74.83
45793;BME280;31495;42.740;22.908;2023-05-09T00:41:26;93320.88;;;13.35;74.78
45793;BME280;31495;42.740;22.908;2023-05-09T00:42:26;93320.66;;;13.37;74.98
45793;BME280;31495;42.740;22.908;2023-05-09T00:43:25;93321.00;;;13.40;75.10
45793;BME280;31495;42.740;22.908;2023-05-09T00:44:25;93322.50;;;13.48;74.88
45793;BME280;31495;42.740;22.908;2023-05-09T00:45:25;93330.53;;;13.47;75.04
45793;BME280;31495;42.740;22.908;2023-05-09T00:46:25;93350.13;;;13.61;75.05
45793;BME280;31495;42.740;22.908;2023-05-09T00:47:26;93339.56;;;13.56;74.97
45793;BME280;31495;42.740;22.908;2023-05-09T00:48:26;93321.00;;;13.40;75.13
45793;BME280;31495;42.740;22.908;2023-05-09T00:49:26;93325.75;;;13.44;74.94
45793;BME280;31495;42.740;22.908;2023-05-09T00:50:25;93328.03;;;13.40;74.89
45793;BME280;31495;42.740;22.908;2023-05-09T00:51:25;93312.72;;;13.32;74.76
45793;BME280;31495;42.740;22.908;2023-05-09T00:52:27;93330.97;;;13.44;74.81
45793;BME280;31495;42.740;22.908;2023-05-09T00:53:26;93300.38;;;13.27;74.69
45793;BME280;31495;42.740;22.908;2023-05-09T00:54:26;93317.72;;;13.33;74.88
45793;BME280;31495;42.740;22.908;2023-05-09T00:55:26;93330.50;;;13.35;74.97
45793;BME280;31495;42.740;22.908;2023-05-09T00:56:25;93323.47;;;13.35;75.11
45793;BME280;31495;42.740;22.908;2023-05-09T00:57:24;93328.03;;;13.40;75.04
45793;BME280;31495;42.740;22.908;2023-05-09T00:58:24;93317.28;;;13.36;74.81
45793;BME280;31495;42.740;22.908;2023-05-09T00:59:24;93327.44;;;13.38;74.93
45793;BME280;31495;42.740;22.908;2023-05-09T01:00:23;93351.75;;;13.44;75.24
45793;BME280;31495;42.740;22.908;2023-05-09T01:01:23;93335.47;;;13.36;75.18
45793;BME280;31495;42.740;22.908;2023-05-09T01:02:22;93322.03;;;13.21;75.12
45793;BME280;31495;42.740;22.908;2023-05-09T01:03:22;93326.81;;;13.24;75.40
45793;BME280;31495;42.740;22.908;2023-05-09T01:04:22;93333.81;;;13.23;75.38
45793;BME280;31495;42.740;22.908;2023-05-09T01:05:24;93324.50;;;13.16;75.20
45793;BME280;31495;42.740;22.908;2023-05-09T01:08:05;93321.22;;;13.09;76.15
45793;BME280;31495;42.740;22.908;2023-05-09T01:11:44;93327.19;;;13.09;76.49
45793;BME280;31495;42.740;22.908;2023-05-09T01:13:09;93344.78;;;13.26;76.19
45793;BME280;31495;42.740;22.908;2023-05-09T01:16:51;93338.28;;;13.16;76.01
45793;BME280;31495;42.740;22.908;2023-05-09T01:21:31;93330.97;;;12.95;75.51
45793;BME280;31495;42.740;22.908;2023-05-09T01:22:33;93312.97;;;12.81;76.26
45793;BME280;31495;42.740;22.908;2023-05-09T01:27:56;93360.72;;;12.99;76.50
45793;BME280;31495;42.740;22.908;2023-05-09T01:30:21;93310.19;;;12.64;76.57
45793;BME280;31495;42.740;22.908;2023-05-09T01:31:23;93353.56;;;12.94;76.62
45793;BME280;31495;42.740;22.908;2023-05-09T01:32:26;93347.59;;;12.94;76.58
45793;BME280;31495;42.740;22.908;2023-05-09T01:33:27;93356.44;;;13.04;76.66
45793;BME280;31495;42.740;22.908;2023-05-09T01:34:28;93328.59;;;12.93;76.63
45793;BME280;31495;42.740;22.908;2023-05-09T01:35:32;93339.34;;;12.97;76.40
45793;BME280;31495;42.740;22.908;2023-05-09T01:36:31;93352.22;;;13.03;76.85
45793;BME280;31495;42.740;22.908;2023-05-09T01:37:35;93342.75;;;12.97;76.65
45793;BME280;31495;42.740;22.908;2023-05-09T01:38:36;93348.97;;;13.08;76.66
45793;BME280;31495;42.740;22.908;2023-05-09T01:39:38;93349.34;;;13.12;76.52
45793;BME280;31495;42.740;22.908;2023-05-09T01:40:41;93328.94;;;12.97;76.94
45793;BME280;31495;42.740;22.908;2023-05-09T01:41:40;93337.34;;;12.99;76.62
45793;BME280;31495;42.740;22.908;2023-05-09T01:42:47;93308.34;;;12.83;76.79
45793;BME280;31495;42.740;22.908;2023-05-09T01:43:48;93332.56;;;12.96;76.83
45793;BME280;31495;42.740;22.908;2023-05-09T01:44:49;93319.88;;;12.87;76.58
45793;BME280;31495;42.740;22.908;2023-05-09T01:45:51;93328.03;;;12.91;76.74
45793;BME280;31495;42.740;22.908;2023-05-09T01:46:52;93323.13;;;12.83;76.68
45793;BME280;31495;42.740;22.908;2023-05-09T01:47:53;93326.09;;;12.86;76.57
45793;BME280;31495;42.740;22.908;2023-05-09T01:48:53;93329.47;;;12.87;76.74
45793;BME280;31495;42.740;22.908;2023-05-09T01:49:54;93340.00;;;12.92;76.80
45793;BME280;31495;42.740;22.908;2023-05-09T01:50:56;93331.28;;;12.86;77.23
45793;BME280;31495;42.740;22.908;2023-05-09T01:51:57;93354.13;;;12.96;76.95
45793;BME280;31495;42.740;22.908;2023-05-09T01:52:59;93318.09;;;12.69;76.82
45793;BME280;31495;42.740;22.908;2023-05-09T01:54:00;93336.56;;;12.80;76.90
45793;BME280;31495;42.740;22.908;2023-05-09T01:55:00;93329.75;;;12.79;77.05
45793;BME280;31495;42.740;22.908;2023-05-09T01:56:02;93342.44;;;12.87;77.29
45793;BME280;31495;42.740;22.908;2023-05-09T01:57:03;93353.44;;;12.89;77.38
45793;BME280;31495;42.740;22.908;2023-05-09T01:58:04;93311.53;;;12.67;77.22
45793;BME280;31495;42.740;22.908;2023-05-09T01:59:05;93353.00;;;12.92;76.86
45793;BME280;31495;42.740;22.908;2023-05-09T02:00:07;93356.03;;;12.89;76.79
45793;BME280;31495;42.740;22.908;2023-05-09T02:01:09;93357.03;;;12.88;76.70
45793;BME280;31495;42.740;22.908;2023-05-09T02:02:08;93353.88;;;12.86;76.67
45793;BME280;31495;42.740;22.908;2023-05-09T02:03:08;93354.88;;;12.85;76.55
45793;BME280;31495;42.740;22.908;2023-05-09T02:04:08;93340.75;;;12.81;76.43
45793;BME280;31495;42.740;22.908;2023-05-09T02:05:09;93324.44;;;12.74;76.56
45793;BME280;31495;42.740;22.908;2023-05-09T02:06:10;93323.88;;;12.72;76.81
45793;BME280;31495;42.740;22.908;2023-05-09T02:07:10;93352.41;;;12.90;76.80
45793;BME280;31495;42.740;22.908;2023-05-09T02:08:10;93277.31;;;12.40;77.02
45793;BME280;31495;42.740;22.908;2023-05-09T02:09:11;93320.63;;;12.76;76.96
45793;BME280;31495;42.740;22.908;2023-05-09T02:10:12;93344.47;;;12.85;77.08
45793;BME280;31495;42.740;22.908;2023-05-09T02:11:13;93344.91;;;12.82;76.94
45793;BME280;31495;42.740;22.908;2023-05-09T02:12:13;93345.41;;;12.91;76.76
45793;BME280;31495;42.740;22.908;2023-05-09T02:13:12;93327.53;;;12.82;76.88
45793;BME280;31495;42.740;22.908;2023-05-09T02:14:12;93341.59;;;12.93;76.88
45793;BME280;31495;42.740;22.908;2023-05-09T02:15:11;93323.13;;;12.83;76.84
45793;BME280;31495;42.740;22.908;2023-05-09T02:16:11;93316.72;;;12.85;76.50
45793;BME280;31495;42.740;22.908;2023-05-09T02:17:11;93322.50;;;12.87;76.62
45793;BME280;31495;42.740;22.908;2023-05-09T02:18:15;93343.22;;;13.06;76.15
45793;BME280;31495;42.740;22.908;2023-05-09T02:19:15;93340.63;;;13.06;75.96
45793;BME280;31495;42.740;22.908;2023-05-09T02:20:15;93306.59;;;12.77;76.08
45793;BME280;31495;42.740;22.908;2023-05-09T02:21:15;93319.66;;;12.89;76.05
45793;BME280;31495;42.740;22.908;2023-05-09T02:22:14;93312.53;;;12.84;76.33
45793;BME280;31495;42.740;22.908;2023-05-09T02:23:15;93347.34;;;13.14;76.12
45793;BME280;31495;42.740;22.908;2023-05-09T02:24:15;93346.50;;;13.13;76.10
45793;BME280;31495;42.740;22.908;2023-05-09T02:25:15;93344.22;;;13.05;76.11
45793;BME280;31495;42.740;22.908;2023-05-09T02:26:17;93352.97;;;13.11;76.13
45793;BME280;31495;42.740;22.908;2023-05-09T02:27:17;93326.81;;;12.94;76.27
45793;BME280;31495;42.740;22.908;2023-05-09T02:28:20;93312.31;;;12.86;76.13
45793;BME280;31495;42.740;22.908;2023-05-09T02:29:25;93305.75;;;12.83;76.23
45793;BME280;31495;42.740;22.908;2023-05-09T02:30:31;93336.09;;;13.01;76.28
45793;BME280;31495;42.740;22.908;2023-05-09T02:31:32;93324.56;;;12.97;76.18
45793;BME280;31495;42.740;22.908;2023-05-09T02:32:34;93331.84;;;13.07;75.78
45793;BME280;31495;42.740;22.908;2023-05-09T02:33:37;93323.53;;;12.98;75.99
45793;BME280;31495;42.740;22.908;2023-05-09T02:34:38;93329.66;;;13.04;76.05
45793;BME280;31495;42.740;22.908;2023-05-09T02:35:43;93325.91;;;13.00;75.97
45793;BME280;31495;42.740;22.908;2023-05-09T02:36:42;93342.34;;;13.12;75.75
45793;BME280;31495;42.740;22.908;2023-05-09T02:37:44;93319.81;;;12.94;75.68
45793;BME280;31495;42.740;22.908;2023-05-09T02:38:44;93345.38;;;13.09;75.70
45793;BME280;31495;42.740;22.908;2023-05-09T02:39:44;93317.16;;;12.82;76.05
45793;BME280;31495;42.740;22.908;2023-05-09T02:40:46;93326.09;;;12.86;75.97
45793;BME280;31495;42.740;22.908;2023-05-09T02:41:48;93359.03;;;13.04;76.08
45793;BME280;31495;42.740;22.908;2023-05-09T02:42:48;93356.88;;;13.01;76.13
45793;BME280;31495;42.740;22.908;2023-05-09T02:43:47;93337.72;;;12.84;75.87
45793;BME280;31495;42.740;22.908;2023-05-09T02:44:47;93349.81;;;12.90;76.33
45793;BME280;31495;42.740;22.908;2023-05-09T02:45:46;93326.69;;;12.70;76.61
45793;BME280;31495;42.740;22.908;2023-05-09T02:46:46;93349.53;;;12.80;76.46
45793;BME280;31495;42.740;22.908;2023-05-09T02:47:45;93336.34;;;12.63;76.62
45793;BME280;31495;42.740;22.908;2023-05-09T02:48:45;93357.19;;;12.75;77.27
45793;BME280;31495;42.740;22.908;2023-05-09T02:49:44;93331.16;;;12.63;77.18
45793;BME280;31495;42.740;22.908;2023-05-09T02:50:44;93310.84;;;12.41;77.77
45793;BME280;31495;42.740;22.908;2023-05-09T02:51:44;93335.69;;;12.49;77.73
45793;BME280;31495;42.740;22.908;2023-05-09T02:52:43;93327.13;;;12.48;77.61
45793;BME280;31495;42.740;22.908;2023-05-09T02:53:42;93319.19;;;12.43;77.42
45793;BME280;31495;42.740;22.908;2023-05-09T02:54:41;93339.75;;;12.45;77.70
45793;BME280;31495;42.740;22.908;2023-05-09T02:55:41;93349.25;;;12.51;77.56
45793;BME280;31495;42.740;22.908;2023-05-09T02:56:40;93348.25;;;12.52;78.13
45793;BME280;31495;42.740;22.908;2023-05-09T02:57:40;93333.81;;;12.38;78.26
45793;BME280;31495;42.740;22.908;2023-05-09T02:58:39;93333.16;;;12.42;78.17
45793;BME280;31495;42.740;22.908;2023-05-09T02:59:39;93354.47;;;12.51;78.10
45793;BME280;31495;42.740;22.908;2023-05-09T03:00:38;93348.25;;;12.52;77.85
45793;BME280;31495;42.740;22.908;2023-05-09T03:01:38;93314.16;;;12.30;77.81
45793;BME280;31495;42.740;22.908;2023-05-09T03:02:38;93357.34;;;12.61;77.67
45793;BME280;31495;42.740;22.908;2023-05-09T03:03:37;93308.75;;;12.31;77.61
45793;BME280;31495;42.740;22.908;2023-05-09T03:04:37;93349.25;;;12.51;77.96
45793;BME280;31495;42.740;22.908;2023-05-09T03:05:36;93363.31;;;12.62;77.95
45793;BME280;31495;42.740;22.908;2023-05-09T03:06:36;93341.63;;;12.56;77.36
45793;BME280;31495;42.740;22.908;2023-05-09T03:07:35;93317.88;;;12.34;77.52
45793;BME280;31495;42.740;22.908;2023-05-09T03:08:35;93354.75;;;12.61;77.66
45793;BME280;31495;42.740;22.908;2023-05-09T03:09:34;93340.59;;;12.57;77.13
45793;BME280;31495;42.740;22.908;2023-05-09T03:10:34;93332.25;;;12.55;77.37
45793;BME280;31495;42.740;22.908;2023-05-09T03:11:34;93360.84;;;12.67;77.61
45793;BME280;31495;42.740;22.908;2023-05-09T03:12:35;93361.81;;;12.73;77.45
45793;BME280;31495;42.740;22.908;2023-05-09T03:13:36;93355.22;;;12.70;77.30
45793;BME280;31495;42.740;22.908;2023-05-09T03:14:36;93338.44;;;12.54;77.38
45793;BME280;31495;42.740;22.908;2023-05-09T03:15:35;93364.41;;;12.73;77.30
45793;BME280;31495;42.740;22.908;2023-05-09T03:16:35;93334.41;;;12.58;76.98
45793;BME280;31495;42.740;22.908;2023-05-09T03:17:35;93355.81;;;12.72;76.85
45793;BME280;31495;42.740;22.908;2023-05-09T03:18:34;93359.00;;;12.74;77.44
45793;BME280;31495;42.740;22.908;2023-05-09T03:19:34;93347.88;;;12.67;77.34
45793;BME280;31495;42.740;22.908;2023-05-09T03:20:33;93373.25;;;12.83;77.18
45793;BME280;31495;42.740;22.908;2023-05-09T03:21:33;93357.81;;;12.70;77.18
45793;BME280;31495;42.740;22.908;2023-05-09T03:22:32;93376.88;;;12.82;77.07
45793;BME280;31495;42.740;22.908;2023-05-09T03:23:32;93375.28;;;12.81;77.11
45793;BME280;31495;42.740;22.908;2023-05-09T03:24:31;93352.63;;;12.70;76.71
45793;BME280;31495;42.740;22.908;2023-05-09T03:25:30;93349.34;;;12.63;76.71
45793;BME280;31495;42.740;22.908;2023-05-09T03:26:30;93357.81;;;12.70;77.00
45793;BME280;31495;42.740;22.908;2023-05-09T03:27:30;93375.72;;;12.78;77.23
45793;BME280;31495;42.740;22.908;2023-05-09T03:28:29;93376.72;;;12.77;77.25
45793;BME280;31495;42.740;22.908;2023-05-09T03:29:29;93360.84;;;12.67;77.49
45793;BME280;31495;42.740;22.908;2023-05-09T03:30:28;93371.75;;;12.76;77.33
45793;BME280;31495;42.740;22.908;2023-05-09T03:31:28;93341.19;;;12.59;76.92
45793;BME280;31495;42.740;22.908;2023-05-09T03:32:28;93372.91;;;12.80;77.29
45793;BME280;31495;42.740;22.908;2023-05-09T03:33:27;93375.41;;;12.86;76.52
45793;BME280;31495;42.740;22.908;2023-05-09T03:34:27;93369.31;;;12.81;76.51
45793;BME280;31495;42.740;22.908;2023-05-09T03:35:26;93362.50;;;12.80;76.53
45793;BME280;31495;42.740;22.908;2023-05-09T03:36:26;93339.53;;;12.65;76.56
45793;BME280;31495;42.740;22.908;2023-05-09T03:37:25;93334.97;;;12.60;76.65
45793;BME280;31495;42.740;22.908;2023-05-09T03:38:24;93387.97;;;12.90;76.81
45793;BME280;31495;42.740;22.908;2023-05-09T03:39:24;93386.53;;;12.94;76.14
45793;BME280;31495;42.740;22.908;2023-05-09T03:40:23;93361.94;;;12.78;76.17
45793;BME280;31495;42.740;22.908;2023-05-09T03:41:24;93384.72;;;12.94;75.98
45793;BME280;31495;42.740;22.908;2023-05-09T03:42:23;93347.09;;;12.66;76.23
45793;BME280;31495;42.740;22.908;2023-05-09T03:43:23;93354.31;;;12.64;76.48
45793;BME280;31495;42.740;22.908;2023-05-09T03:44:23;93366.56;;;12.76;76.32
45793;BME280;31495;42.740;22.908;2023-05-09T03:45:23;93375.63;;;12.85;76.39
45793;BME280;31495;42.740;22.908;2023-05-09T03:46:23;93381.63;;;12.85;76.33
45793;BME280;31495;42.740;22.908;2023-05-09T03:47:22;93375.28;;;12.81;76.64
45793;BME280;31495;42.740;22.908;2023-05-09T03:48:21;93381.56;;;12.92;76.47
45793;BME280;31495;42.740;22.908;2023-05-09T03:49:21;93389.13;;;12.94;76.38
45793;BME280;31495;42.740;22.908;2023-05-09T03:50:20;93377.66;;;12.83;76.57
45793;BME280;31495;42.740;22.908;2023-05-09T03:51:20;93381.47;;;12.80;76.50
45793;BME280;31495;42.740;22.908;2023-05-09T03:52:19;93376.06;;;12.82;76.24
45793;BME280;31495;42.740;22.908;2023-05-09T03:53:19;93380.41;;;12.88;76.03
45793;BME280;31495;42.740;22.908;2023-05-09T03:54:18;93374.63;;;12.86;75.81
45793;BME280;31495;42.740;22.908;2023-05-09T03:55:18;93366.28;;;12.84;75.98
45793;BME280;31495;42.740;22.908;2023-05-09T03:56:18;93370.44;;;12.85;76.05
45793;BME280;31495;42.740;22.908;2023-05-09T03:57:18;93373.91;;;12.79;76.14
45793;BME280;31495;42.740;22.908;2023-05-09T03:58:17;93372.53;;;12.76;76.31
45793;BME280;31495;42.740;22.908;2023-05-09T03:59:17;93361.06;;;12.65;76.66
45793;BME280;31495;42.740;22.908;2023-05-09T04:00:17;93383.84;;;12.82;76.70
45793;BME280;31495;42.740;22.908;2023-05-09T04:01:17;93369.38;;;12.74;76.78
45793;BME280;31495;42.740;22.908;2023-05-09T04:02:17;93400.75;;;12.91;76.56
45793;BME280;31495;42.740;22.908;2023-05-09T04:03:17;93374.28;;;12.82;76.64
45793;BME280;31495;42.740;22.908;2023-05-09T04:04:16;93378.22;;;12.85;76.50
45793;BME280;31495;42.740;22.908;2023-05-09T04:05:16;93358.31;;;12.79;76.21
45793;BME280;31495;42.740;22.908;2023-05-09T04:06:15;93363.50;;;12.79;76.11
45793;BME280;31495;42.740;22.908;2023-05-09T04:07:14;93382.34;;;12.93;76.06
45793;BME280;31495;42.740;22.908;2023-05-09T04:08:14;93384.00;;;12.87;75.94
45793;BME280;31495;42.740;22.908;2023-05-09T04:09:13;93382.44;;;12.86;75.99
45793;BME280;31495;42.740;22.908;2023-05-09T04:10:14;93384.81;;;12.87;76.02
45793;BME280;31495;42.740;22.908;2023-05-09T04:11:14;93388.53;;;12.92;76.17
45793;BME280;31495;42.740;22.908;2023-05-09T04:12:13;93398.28;;;12.96;75.96
45793;BME280;31495;42.740;22.908;2023-05-09T04:13:13;93362.25;;;12.69;75.47
45793;BME280;31495;42.740;22.908;2023-05-09T04:14:12;93386.66;;;12.80;75.52
45793;BME280;31495;42.740;22.908;2023-05-09T04:15:11;93375.16;;;12.76;75.65
45793;BME280;31495;42.740;22.908;2023-05-09T04:16:11;93375.06;;;12.83;75.82
45793;BME280;31495;42.740;22.908;2023-05-09T04:17:10;93402.03;;;13.00;75.43
45793;BME280;31495;42.740;22.908;2023-05-09T04:18:10;93384.72;;;12.94;75.37
45793;BME280;31495;42.740;22.908;2023-05-09T04:19:10;93348.09;;;12.65;75.20
45793;BME280;31495;42.740;22.908;2023-05-09T04:20:10;93395.19;;;13.06;75.11
45793;BME280;31495;42.740;22.908;2023-05-09T04:21:09;93375.34;;;12.93;74.76
45793;BME280;31495;42.740;22.908;2023-05-09T04:22:09;93376.50;;;12.97;74.75
45793;BME280;31495;42.740;22.908;2023-05-09T04:23:08;93382.53;;;13.10;74.69
45793;BME280;31495;42.740;22.908;2023-05-09T04:24:08;93393.44;;;13.18;74.38
45793;BME280;31495;42.740;22.908;2023-05-09T04:25:07;93377.69;;;13.13;74.29
45793;BME280;31495;42.740;22.908;2023-05-09T04:26:10;93401.06;;;13.32;74.30
45793;BME280;31495;42.740;22.908;2023-05-09T04:27:12;93387.22;;;13.19;74.52
45793;BME280;31495;42.740;22.908;2023-05-09T04:28:11;93399.91;;;13.28;74.59
45793;BME280;31495;42.740;22.908;2023-05-09T04:29:11;93387.94;;;13.27;74.19
45793;BME280;31495;42.740;22.908;2023-05-09T04:30:10;93358.47;;;13.02;74.30
45793;BME280;31495;42.740;22.908;2023-05-09T04:31:10;93380.16;;;13.08;74.51
45793;BME280;31495;42.740;22.908;2023-05-09T04:32:11;93408.50;;;13.28;74.20
45793;BME280;31495;42.740;22.908;2023-05-09T04:33:10;93400.72;;;13.28;74.42
45793;BME280;31495;42.740;22.908;2023-05-09T04:34:10;93345.56;;;12.96;74.53
45793;BME280;31495;42.740;22.908;2023-05-09T04:35:10;93390.88;;;13.30;74.26
45793;BME280;31495;42.740;22.908;2023-05-09T04:36:09;93390.31;;;13.28;74.43
45793;BME280;31495;42.740;22.908;2023-05-09T04:37:09;93374.72;;;13.28;73.54
45793;BME280;31495;42.740;22.908;2023-05-09T04:38:09;93389.66;;;13.33;73.84
45793;BME280;31495;42.740;22.908;2023-05-09T04:39:09;93373.78;;;13.22;73.86
45793;BME280;31495;42.740;22.908;2023-05-09T04:40:10;93382.75;;;13.27;73.56
45793;BME280;31495;42.740;22.908;2023-05-09T04:41:10;93386.00;;;13.22;73.28
45793;BME280;31495;42.740;22.908;2023-05-09T04:42:09;93375.91;;;13.14;73.09
45793;BME280;31495;42.740;22.908;2023-05-09T04:43:10;93407.06;;;13.32;73.24
45793;BME280;31495;42.740;22.908;2023-05-09T04:44:09;93388.81;;;13.20;73.32
45793;BME280;31495;42.740;22.908;2023-05-09T04:45:09;93390.31;;;13.28;72.85
45793;BME280;31495;42.740;22.908;2023-05-09T04:46:09;93400.06;;;13.33;72.42
45793;BME280;31495;42.740;22.908;2023-05-09T04:47:09;93404.66;;;13.31;72.82
45793;BME280;31495;42.740;22.908;2023-05-09T04:48:09;93389.03;;;13.19;72.77
45793;BME280;31495;42.740;22.908;2023-05-09T04:49:08;93398.69;;;13.30;72.67
45793;BME280;31495;42.740;22.908;2023-05-09T04:50:08;93397.75;;;13.24;72.39
45793;BME280;31495;42.740;22.908;2023-05-09T04:51:08;93386.78;;;13.22;72.22
45793;BME280;31495;42.740;22.908;2023-05-09T04:52:07;93393.22;;;13.20;71.94
45793;BME280;31495;42.740;22.908;2023-05-09T04:53:07;93376.47;;;13.16;71.75
45793;BME280;31495;42.740;22.908;2023-05-09T04:54:07;93386.00;;;13.22;71.37
45793;BME280;31495;42.740;22.908;2023-05-09T04:55:06;93402.84;;;13.31;70.90
45793;BME280;31495;42.740;22.908;2023-05-09T04:56:06;93386.00;;;13.22;71.90
45793;BME280;31495;42.740;22.908;2023-05-09T04:57:05;93377.34;;;13.10;72.01
45793;BME280;31495;42.740;22.908;2023-05-09T04:58:05;93406.34;;;13.25;71.81
45793;BME280;31495;42.740;22.908;2023-05-09T04:59:04;93401.16;;;13.25;71.77
45793;BME280;31495;42.740;22.908;2023-05-09T05:00:04;93400.94;;;13.27;71.40
45793;BME280;31495;42.740;22.908;2023-05-09T05:01:06;93372.97;;;13.10;71.43
45793;BME280;31495;42.740;22.908;2023-05-09T05:02:05;93403.81;;;13.37;71.80
45793;BME280;31495;42.740;22.908;2023-05-09T05:03:04;93363.63;;;13.21;71.07
45793;BME280;31495;42.740;22.908;2023-05-09T05:04:03;93383.25;;;13.35;71.11
45793;BME280;31495;42.740;22.908;2023-05-09T05:05:03;93379.78;;;13.41;71.10
45793;BME280;31495;42.740;22.908;2023-05-09T05:06:03;93389.28;;;13.48;71.10
45793;BME280;31495;42.740;22.908;2023-05-09T05:07:03;93395.28;;;13.48;71.25
45793;BME280;31495;42.740;22.908;2023-05-09T05:08:03;93393.69;;;13.47;70.84
45793;BME280;31495;42.740;22.908;2023-05-09T05:09:03;93391.66;;;13.49;70.75
45793;BME280;31495;42.740;22.908;2023-05-09T05:10:03;93375.16;;;13.44;70.42
45793;BME280;31495;42.740;22.908;2023-05-09T05:11:04;93385.56;;;13.55;70.06
45793;BME280;31495;42.740;22.908;2023-05-09T05:12:04;93390.09;;;13.48;70.06
45793;BME280;31495;42.740;22.908;2023-05-09T05:13:05;93397.75;;;13.43;70.70
45793;BME280;31495;42.740;22.908;2023-05-09T05:14:04;93381.88;;;13.33;70.90
45793;BME280;31495;42.740;22.908;2023-05-09T05:15:04;93341.59;;;12.93;71.47
45793;BME280;31495;42.740;22.908;2023-05-09T05:16:04;93403.63;;;13.20;71.26
45793;BME280;31495;42.740;22.908;2023-05-09T05:17:03;93388.47;;;13.17;71.49
45793;BME280;31495;42.740;22.908;2023-05-09T05:18:03;93402.50;;;13.28;71.65
45793;BME280;31495;42.740;22.908;2023-05-09T05:19:03;93386.06;;;13.15;71.09
45793;BME280;31495;42.740;22.908;2023-05-09T05:20:02;93387.88;;;13.15;70.99
45793;BME280;31495;42.740;22.908;2023-05-09T05:21:04;93380.50;;;13.12;70.89
45793;BME280;31495;42.740;22.908;2023-05-09T05:22:04;93379.72;;;13.11;71.36
45793;BME280;31495;42.740;22.908;2023-05-09T05:23:03;93382.16;;;13.24;70.91
45793;BME280;31495;42.740;22.908;2023-05-09T05:24:03;93378.53;;;13.26;71.08
45793;BME280;31495;42.740;22.908;2023-05-09T05:25:03;93371.41;;;13.21;71.29
45793;BME280;31495;42.740;22.908;2023-05-09T05:26:03;93387.88;;;13.33;71.34
45793;BME280;31495;42.740;22.908;2023-05-09T05:27:02;93377.69;;;13.32;71.17
45793;BME280;31495;42.740;22.908;2023-05-09T05:28:01;93379.41;;;13.38;70.62
45793;BME280;31495;42.740;22.908;2023-05-09T05:29:01;93366.47;;;13.31;70.28
45793;BME280;31495;42.740;22.908;2023-05-09T05:30:00;93385.75;;;13.42;71.09
45793;BME280;31495;42.740;22.908;2023-05-09T05:31:00;93403.44;;;13.52;70.88